Time;durP1;ratioP1;P1;durP2;ratioP2;P2;SDS_P1;SDS_P2;PMS_P1;PMS_P2;Temp;Humidity;BMP_temperature;BMP_pressure;BME280_temperature;BME280_humidity;BME280_pressure;Samples;Min_cycle;Max_cycle;Signal;HPM_P1;HPM_P2
2020/12/11 00:01:00;;;;;;;22.33;8.87;;;;;;;-6.04;56.91;102523.25;1787357;80;21242;-67
2020/12/11 00:03:33;;;;;;;19.57;8.93;;;;;;;-6.04;56.91;102523.25;1770871;81;21972;-67
2020/12/11 00:06:06;;;;;;;24.07;8.90;;;;;;;-6.05;57.16;102532.99;1761047;81;21434;-67
2020/12/11 00:08:39;;;;;;;19.40;8.45;;;;;;;-6.09;57.26;102529.96;1770063;81;21174;-67
2020/12/11 00:11:12;;;;;;;20.75;8.78;;;;;;;-6.14;57.39;102532.86;1770677;81;21237;-67
2020/12/11 00:13:46;;;;;;;21.52;9.03;;;;;;;-6.22;57.44;102523.40;1772216;81;21189;-67
2020/12/11 00:16:18;;;;;;;17.90;8.40;;;;;;;-6.25;57.55;102519.52;1771204;80;21131;-67
2020/12/11 00:18:53;;;;;;;19.48;9.33;;;;;;;-6.27;57.73;102517.37;1769097;81;21802;-67
2020/12/11 00:21:26;;;;;;;21.42;9.68;;;;;;;-6.26;57.74;102514.41;1769509;81;21288;-67
2020/12/11 00:23:59;;;;;;;29.67;11.83;;;;;;;-6.27;57.76;102511.41;1772331;79;21320;-67
2020/12/11 00:26:32;;;;;;;23.80;9.73;;;;;;;-6.31;57.79;102515.61;1764054;81;21314;-67
2020/12/11 00:29:06;;;;;;;15.58;7.10;;;;;;;-6.32;57.80;102511.75;1755501;81;21351;-67
2020/12/11 00:31:40;;;;;;;16.95;8.05;;;;;;;-6.36;57.82;102511.27;1756407;81;21299;-66
2020/12/11 00:34:13;;;;;;;23.05;8.35;;;;;;;-6.47;57.86;102508.53;1778338;80;21165;-67
2020/12/11 00:36:47;;;;;;;17.90;7.75;;;;;;;-6.55;58.06;102515.21;1798889;80;21806;-68
2020/12/11 00:39:20;;;;;;;19.62;8.23;;;;;;;-6.54;58.18;102520.73;1798227;80;21257;-67
2020/12/11 00:41:54;;;;;;;17.57;7.58;;;;;;;-6.56;58.22;102513.48;1797367;79;21248;-69
2020/12/11 00:44:27;;;;;;;16.10;7.03;;;;;;;-6.58;58.21;102508.78;1777213;80;21272;-70
2020/12/11 00:47:07;;;;;;;22.62;8.48;;;;;;;-6.60;58.38;102505.77;1771519;80;21353;-70
2020/12/11 00:49:40;;;;;;;21.07;9.65;;;;;;;-6.62;58.41;102509.57;1769891;81;21762;-69
2020/12/11 00:52:13;;;;;;;21.12;9.53;;;;;;;-6.64;58.40;102504.87;1792993;79;21216;-67
2020/12/11 00:54:47;;;;;;;21.40;8.95;;;;;;;-6.64;58.45;102509.97;1796726;80;21283;-67
2020/12/11 00:57:20;;;;;;;24.20;9.45;;;;;;;-6.65;58.42;102512.47;1798571;80;21197;-67
2020/12/11 00:59:54;;;;;;;18.98;8.33;;;;;;;-6.66;58.45;102509.05;1798577;80;21142;-67
2020/12/11 01:02:27;;;;;;;18.75;9.78;;;;;;;-6.64;58.38;102507.42;1797188;79;21885;-67
2020/12/11 01:05:00;;;;;;;20.88;9.28;;;;;;;-6.68;58.28;102504.77;1797833;80;21257;-67
2020/12/11 01:07:33;;;;;;;24.52;10.70;;;;;;;-6.69;58.37;102506.89;1797252;79;21303;-67
2020/12/11 01:10:07;;;;;;;23.47;9.95;;;;;;;-6.69;58.46;102508.16;1798552;80;21282;-67
2020/12/11 01:12:40;;;;;;;22.05;9.83;;;;;;;-6.68;58.44;102505.63;1798007;80;21133;-67
2020/12/11 01:15:12;;;;;;;17.90;7.80;;;;;;;-6.65;58.38;102503.14;1798197;80;21248;-68
2020/12/11 01:17:45;;;;;;;23.60;9.60;;;;;;;-6.67;58.25;102498.45;1797214;80;21471;-68
2020/12/11 01:20:18;;;;;;;16.25;7.05;;;;;;;-6.70;58.32;102503.48;1797350;80;21316;-67
2020/12/11 01:22:51;;;;;;;19.80;9.17;;;;;;;-6.71;58.39;102500.92;1798441;80;21180;-68
2020/12/11 01:25:25;;;;;;;21.97;9.50;;;;;;;-6.70;58.42;102503.48;1798160;80;21288;-67
2020/12/11 01:27:58;;;;;;;17.82;9.03;;;;;;;-6.69;58.41;102492.47;1756973;80;21247;-68
2020/12/11 01:30:31;;;;;;;19.13;8.60;;;;;;;-6.67;58.41;102497.17;1755594;80;21326;-68
2020/12/11 01:33:04;;;;;;;22.35;9.65;;;;;;;-6.67;58.31;102501.40;1755920;81;21271;-68
2020/12/11 01:35:37;;;;;;;19.05;8.58;;;;;;;-6.70;58.35;102502.20;1757061;79;21713;-68
2020/12/11 01:38:11;;;;;;;27.42;10.20;;;;;;;-6.74;58.33;102495.77;1756698;81;21259;-68
2020/12/11 01:40:44;;;;;;;26.50;11.07;;;;;;;-6.79;58.49;102503.73;1756062;81;21200;-68
2020/12/11 01:43:21;;;;;;;23.40;9.75;;;;;;;-6.79;58.61;102494.82;1757212;81;21857;-68
2020/12/11 01:45:54;;;;;;;18.57;8.03;;;;;;;-6.83;58.56;102491.79;1674100;85;21134;-68
2020/12/11 01:48:27;;;;;;;19.07;8.60;;;;;;;-6.86;58.66;102497.28;1693046;85;21264;-68
2020/12/11 01:51:00;;;;;;;20.70;8.23;;;;;;;-6.84;58.78;102494.74;1694068;84;21209;-67
2020/12/11 01:53:33;;;;;;;22.30;8.77;;;;;;;-6.82;58.70;102486.71;1694168;84;21281;-68
2020/12/11 01:56:06;;;;;;;13.58;6.55;;;;;;;-6.81;58.73;102486.30;1694754;84;21162;-67
2020/12/11 01:58:39;;;;;;;15.03;7.50;;;;;;;-6.83;58.70;102486.69;1694867;84;21178;-68
2020/12/11 02:01:12;;;;;;;19.90;8.45;;;;;;;-6.85;58.71;102484.10;1689670;85;21814;-67
2020/12/11 02:03:45;;;;;;;21.33;7.80;;;;;;;-6.87;58.75;102488.31;1689273;85;21292;-68
2020/12/11 02:06:18;;;;;;;14.13;6.45;;;;;;;-6.87;58.75;102493.41;1690759;85;21158;-68
2020/12/11 02:08:57;;;;;;;17.45;8.18;;;;;;;-6.86;58.73;102490.05;1690187;85;21273;-68
2020/12/11 02:11:30;;;;;;;23.80;9.20;;;;;;;-6.86;58.70;102492.59;1689821;85;21336;-68
2020/12/11 02:14:03;;;;;;;18.90;8.13;;;;;;;-6.89;58.68;102485.75;1690042;85;21594;-68
2020/12/11 02:16:35;;;;;;;19.53;10.03;;;;;;;-6.91;58.71;102489.10;1690989;85;21392;-67
2020/12/11 02:19:09;;;;;;;22.50;11.05;;;;;;;-6.94;58.82;102491.17;1690457;85;21838;-67
2020/12/11 02:21:41;;;;;;;26.30;9.85;;;;;;;-6.94;58.90;102492.45;1690605;85;21265;-68
2020/12/11 02:24:19;;;;;;;20.95;9.50;;;;;;;-6.92;58.86;102486.97;1690149;85;21201;-68
2020/12/11 02:26:56;;;;;;;21.25;8.70;;;;;;;-6.94;58.82;102483.53;1696733;83;21621;-67
2020/12/11 02:29:29;;;;;;;20.00;8.70;;;;;;;-6.96;58.90;102495.39;1716696;82;21162;-69
2020/12/11 02:32:02;;;;;;;20.20;9.28;;;;;;;-6.95;58.93;102489.45;1720127;83;21201;-68
2020/12/11 02:34:37;;;;;;;17.77;9.08;;;;;;;-6.92;59.00;102493.33;1720149;83;21327;-68
2020/12/11 02:37:13;;;;;;;22.27;9.00;;;;;;;-6.91;58.89;102495.06;1719027;83;21319;-68
2020/12/11 02:39:46;;;;;;;23.90;10.10;;;;;;;-6.95;58.80;102488.61;1713913;83;21158;-69
2020/12/11 02:42:19;;;;;;;14.90;6.25;;;;;;;-7.05;58.86;102485.45;1706489;83;21260;-68
2020/12/11 02:44:52;;;;;;;18.67;7.90;;;;;;;-7.13;59.03;102494.63;1713527;82;21190;-68
2020/12/11 02:47:25;;;;;;;20.35;9.78;;;;;;;-7.21;59.16;102497.02;1699024;84;21264;-68
2020/12/11 02:49:58;;;;;;;22.23;9.53;;;;;;;-7.21;59.28;102495.74;1705027;84;21265;-67
2020/12/11 02:52:30;;;;;;;21.55;9.80;;;;;;;-7.25;59.29;102489.30;1705580;84;21894;-67
2020/12/11 02:55:03;;;;;;;19.17;8.60;;;;;;;-7.29;59.44;102493.48;1703788;84;21838;-69
2020/12/11 02:57:36;;;;;;;24.93;10.17;;;;;;;-7.39;59.52;102489.45;1764350;81;21180;-67
2020/12/11 03:00:09;;;;;;;16.13;6.63;;;;;;;-7.48;59.75;102490.14;1766018;80;21591;-68
2020/12/11 03:02:42;;;;;;;21.42;9.40;;;;;;;-7.58;59.97;102494.18;1775921;80;21227;-68
2020/12/11 03:05:15;;;;;;;23.80;9.50;;;;;;;-7.63;60.17;102492.36;1766915;81;21287;-68
2020/12/11 03:07:48;;;;;;;24.60;10.77;;;;;;;-7.63;60.34;102493.22;1766336;81;21659;-67
2020/12/11 03:10:22;;;;;;;19.95;9.55;;;;;;;-7.50;60.44;102496.88;1765710;81;21121;-68
2020/12/11 03:12:55;;;;;;;23.00;10.20;;;;;;;-7.35;60.38;102493.76;1766516;81;21279;-67
2020/12/11 03:15:28;;;;;;;20.77;9.98;;;;;;;-7.21;60.23;102489.38;1767202;80;21252;-67
2020/12/11 03:18:01;;;;;;;25.00;10.18;;;;;;;-7.07;59.97;102499.41;1766475;81;21153;-68
2020/12/11 03:20:35;;;;;;;22.42;7.80;;;;;;;-7.01;59.73;102494.84;1766328;81;21283;-67
2020/12/11 03:23:08;;;;;;;20.80;9.63;;;;;;;-6.91;59.69;102493.78;1776705;81;21306;-67
2020/12/11 03:25:41;;;;;;;18.10;9.18;;;;;;;-6.82;59.45;102495.63;1776469;80;21317;-67
2020/12/11 03:28:14;;;;;;;20.80;8.00;;;;;;;-6.81;59.41;102492.67;1728399;83;21142;-67
2020/12/11 03:30:47;;;;;;;17.17;8.45;;;;;;;-6.74;59.52;102490.67;1724730;83;21150;-70
2020/12/11 03:33:21;;;;;;;18.23;8.48;;;;;;;-6.69;59.46;102485.23;1724509;83;21284;-68
2020/12/11 03:35:55;;;;;;;21.42;10.38;;;;;;;-6.67;59.32;102481.89;1725782;83;21790;-67
2020/12/11 03:38:28;;;;;;;19.55;8.50;;;;;;;-6.73;59.45;102479.22;1725446;83;21197;-68
2020/12/11 03:41:01;;;;;;;22.45;8.75;;;;;;;-6.86;59.56;102472.22;1725424;82;21257;-67
2020/12/11 03:43:36;;;;;;;22.22;9.45;;;;;;;-6.99;59.80;102478.77;1732152;82;21161;-66
2020/12/11 03:46:09;;;;;;;21.25;9.15;;;;;;;-7.09;60.09;102487.51;1731857;83;21217;-69
2020/12/11 03:48:42;;;;;;;27.58;10.75;;;;;;;-7.19;60.24;102488.16;1725642;83;21184;-69
2020/12/11 03:51:21;;;;;;;25.37;9.45;;;;;;;-7.25;60.44;102489.30;1725478;83;21201;-69
2020/12/11 03:53:54;;;;;;;23.80;10.18;;;;;;;-7.22;60.67;102486.41;1747473;81;21318;-70
2020/12/11 03:56:26;;;;;;;19.93;9.60;;;;;;;-7.09;60.72;102482.41;1757340;80;21207;-67
2020/12/11 03:58:59;;;;;;;20.00;9.58;;;;;;;-6.95;60.50;102484.80;1673892;84;21348;-67
2020/12/11 04:01:34;;;;;;;19.20;8.37;;;;;;;-6.89;60.42;102472.16;1684960;83;21273;-68
2020/12/11 04:04:08;;;;;;;20.50;9.15;;;;;;;-6.78;60.44;102468.09;1656948;83;21291;-68
2020/12/11 04:06:41;;;;;;;25.35;9.78;;;;;;;-6.65;60.19;102466.62;1677662;85;21707;-70
2020/12/11 04:09:13;;;;;;;23.20;9.93;;;;;;;-6.65;60.10;102465.34;1678737;84;21352;-67
2020/12/11 04:11:47;;;;;;;18.87;8.20;;;;;;;-6.64;60.15;102466.66;1678848;85;21783;-68
2020/12/11 04:14:20;;;;;;;16.12;7.47;;;;;;;-6.59;60.19;102471.83;1677824;84;21353;-68
2020/12/11 04:16:53;;;;;;;17.55;8.25;;;;;;;-6.53;60.08;102477.01;1677976;84;21272;-68
2020/12/11 04:19:28;;;;;;;24.82;10.32;;;;;;;-6.55;60.00;102485.05;1677511;84;21707;-69
2020/12/11 04:22:02;;;;;;;23.22;10.55;;;;;;;-6.61;60.05;102481.97;1678845;83;21264;-67
2020/12/11 04:24:35;;;;;;;22.30;9.50;;;;;;;-6.66;60.22;102474.67;1677572;85;21339;-69
2020/12/11 04:27:08;;;;;;;18.85;8.48;;;;;;;-6.74;60.28;102478.80;1704077;83;21250;-68
2020/12/11 04:29:42;;;;;;;20.55;8.65;;;;;;;-6.87;60.52;102471.77;1718020;83;21151;-69
2020/12/11 04:32:15;;;;;;;20.62;8.95;;;;;;;-6.91;60.85;102473.41;1726379;80;21272;-68
2020/12/11 04:34:49;;;;;;;21.80;8.35;;;;;;;-6.91;60.93;102472.55;1799929;79;21172;-68
2020/12/11 04:37:21;;;;;;;20.53;8.03;;;;;;;-6.98;61.06;102471.59;1798420;80;21753;-68
2020/12/11 04:39:54;;;;;;;14.53;6.97;;;;;;;-6.99;61.21;102475.36;1797605;79;21125;-69
2020/12/11 04:42:28;;;;;;;22.73;10.93;;;;;;;-7.10;61.42;102474.33;1810207;78;21639;-69
2020/12/11 04:45:01;;;;;;;21.45;9.28;;;;;;;-7.10;61.42;102474.33;1811571;79;21821;-68
2020/12/11 04:47:34;;;;;;;13.50;6.47;;;;;;;-7.16;61.64;102489.05;1811778;79;21275;-68
2020/12/11 04:50:06;;;;;;;16.97;7.70;;;;;;;-7.12;61.88;102483.63;1812428;79;21279;-69
2020/12/11 04:52:42;;;;;;;21.00;9.43;;;;;;;-7.14;61.95;102486.56;1795903;80;21770;-69
2020/12/11 04:55:20;;;;;;;26.33;10.03;;;;;;;-7.14;62.09;102475.94;1794869;80;21308;-68
2020/12/11 04:57:54;;;;;;;24.15;9.68;;;;;;;-7.12;62.21;102487.03;1795082;80;21841;-69
2020/12/11 05:00:27;;;;;;;24.90;9.70;;;;;;;-7.11;62.31;102488.73;1795938;79;21766;-69
2020/12/11 05:03:01;;;;;;;23.15;9.75;;;;;;;-7.10;62.42;102482.83;1795809;80;21145;-69
2020/12/11 05:05:33;;;;;;;15.88;6.45;;;;;;;-7.12;62.57;102488.30;1794585;80;21865;-69
2020/12/11 05:08:19;;;;;;;22.62;9.70;;;;;;;-7.13;62.78;102500.58;1794944;80;21185;-67
2020/12/11 05:10:53;;;;;;;23.35;11.57;;;;;;;-7.12;63.05;102494.67;1796525;80;21703;-68
2020/12/11 05:13:26;;;;;;;23.27;11.10;;;;;;;-7.12;63.26;102493.80;1796873;80;21292;-68
2020/12/11 05:16:12;;;;;;;22.22;9.80;;;;;;;-7.14;63.54;102498.84;1794720;80;21268;-69
2020/12/11 05:18:45;;;;;;;21.00;9.80;;;;;;;-7.12;63.79;102503.58;1793970;80;21220;-70
2020/12/11 05:21:26;;;;;;;21.65;9.35;;;;;;;-7.07;63.99;102501.95;1768315;80;21690;-68
2020/12/11 05:24:08;;;;;;;19.62;7.80;;;;;;;-6.97;64.34;102505.52;1795743;80;21711;-69
2020/12/11 05:26:43;;;;;;;28.02;11.25;;;;;;;-6.93;64.60;102504.36;1800410;79;21771;-67
2020/12/11 05:29:16;;;;;;;23.87;10.50;;;;;;;-6.95;64.90;102499.62;1808022;79;21147;-68
2020/12/11 05:31:51;;;;;;;16.80;8.13;;;;;;;-6.94;65.06;102507.73;1781629;79;21142;-67
2020/12/11 05:34:24;;;;;;;19.15;9.80;;;;;;;-6.91;65.33;102504.37;1763080;81;21265;-67
2020/12/11 05:36:57;;;;;;;18.82;8.33;;;;;;;-6.89;65.49;102497.62;1757349;81;21151;-67
2020/12/11 05:39:33;;;;;;;22.87;10.03;;;;;;;-6.83;65.56;102496.88;1754819;81;21296;-68
2020/12/11 05:42:12;;;;;;;29.42;11.65;;;;;;;-6.75;65.74;102506.77;1738889;82;21112;-67
2020/12/11 05:44:45;;;;;;;40.90;18.87;;;;;;;-6.68;65.82;102515.82;1740007;81;21258;-69
2020/12/11 05:47:25;;;;;;;27.35;12.00;;;;;;;-6.59;65.89;102500.69;1751537;79;21243;-68
2020/12/11 05:50:00;;;;;;;45.55;18.75;;;;;;;-6.51;65.90;102510.59;1716396;82;21291;-68
2020/12/11 05:52:33;;;;;;;27.62;12.35;;;;;;;-6.43;65.84;102512.00;1750978;81;21299;-72
2020/12/11 05:55:06;;;;;;;26.02;11.05;;;;;;;-6.40;66.00;102505.25;1712378;82;21276;-69
2020/12/11 05:57:39;;;;;;;27.73;11.30;;;;;;;-6.36;66.13;102506.17;1727940;81;21274;-70
2020/12/11 06:00:13;;;;;;;26.40;10.88;;;;;;;-6.30;66.24;102503.70;1704598;80;21486;-70
2020/12/11 06:02:50;;;;;;;20.12;9.08;;;;;;;-6.22;66.27;102491.53;1764141;80;22535;-69
2020/12/11 06:05:25;;;;;;;21.30;9.35;;;;;;;-6.11;66.26;102488.30;1771755;80;22465;-69
2020/12/11 06:07:58;;;;;;;21.85;9.80;;;;;;;-6.01;66.29;102492.26;1753085;79;21205;-72
2020/12/11 06:10:42;;;;;;;21.23;9.70;;;;;;;-5.94;66.36;102499.56;1720832;82;21173;-72
2020/12/11 06:13:37;;;;;;;23.47;10.50;;;;;;;-5.93;66.57;102495.78;1770060;80;21239;-71
2020/12/11 06:16:11;;;;;;;19.37;9.23;;;;;;;-5.92;66.91;102501.30;1722597;81;21208;-71
2020/12/11 06:18:44;;;;;;;17.60;9.00;;;;;;;-5.83;67.23;102508.22;1767978;79;21299;-71
2020/12/11 06:21:20;;;;;;;21.93;9.63;;;;;;;-5.76;67.33;102509.60;1766049;79;21238;-71
2020/12/11 06:23:53;;;;;;;22.25;10.25;;;;;;;-5.63;67.46;102508.05;1761518;80;21371;-71
2020/12/11 06:26:34;;;;;;;22.65;9.88;;;;;;;-5.58;67.41;102511.11;1759822;79;21875;-76
2020/12/11 06:29:07;;;;;;;20.45;10.05;;;;;;;-5.57;67.27;102499.21;1747091;80;21265;-69
2020/12/11 06:31:49;;;;;;;20.70;10.20;;;;;;;-5.51;67.36;102499.27;1742405;79;21294;-72
2020/12/11 06:34:27;;;;;;;23.85;9.78;;;;;;;-5.43;67.17;102487.47;1757579;79;21200;-73
2020/12/11 06:37:00;;;;;;;27.45;9.38;;;;;;;-5.39;66.92;102489.21;1775288;79;21358;-74
2020/12/11 06:39:48;;;;;;;26.45;10.13;;;;;;;-5.33;66.78;102479.09;1774358;79;21204;-72
2020/12/11 06:42:42;;;;;;;17.55;8.35;;;;;;;-5.30;66.45;102470.16;1768562;80;21295;-73
2020/12/11 06:45:25;;;;;;;19.73;8.88;;;;;;;-5.30;66.33;102478.27;1763701;79;21152;-72
2020/12/11 06:48:01;;;;;;;17.80;9.15;;;;;;;-5.30;66.17;102471.44;1761861;79;21384;-72
2020/12/11 06:50:34;;;;;;;16.45;8.58;;;;;;;-5.30;66.19;102470.16;1730596;81;21333;-70
2020/12/11 06:53:07;;;;;;;18.67;9.05;;;;;;;-5.26;66.31;102469.38;1716304;81;21314;-70
2020/12/11 06:55:52;;;;;;;14.53;7.08;;;;;;;-5.15;66.20;102463.09;1711806;82;21483;-68
2020/12/11 06:58:25;;;;;;;18.77;8.68;;;;;;;-5.07;66.12;102472.56;1721520;81;21417;-69
2020/12/11 07:00:58;;;;;;;18.50;8.10;;;;;;;-4.99;66.04;102468.38;1716696;81;21303;-72
2020/12/11 07:03:32;;;;;;;22.15;9.53;;;;;;;-4.88;66.05;102474.88;1704733;81;21513;-69
2020/12/11 07:06:08;;;;;;;24.05;9.88;;;;;;;-4.79;66.07;102472.40;1704072;82;21354;-72
2020/12/11 07:08:42;;;;;;;18.15;9.08;;;;;;;-4.69;66.14;102473.34;1770577;79;21332;-73
2020/12/11 07:11:15;;;;;;;23.20;10.67;;;;;;;-4.60;66.07;102473.41;1733521;80;21331;-74
2020/12/11 07:13:52;;;;;;;25.88;10.32;;;;;;;-4.56;66.07;102474.72;1732024;80;21554;-75
2020/12/11 07:16:43;;;;;;;23.30;9.55;;;;;;;-4.55;66.11;102469.19;1703151;82;21212;-74
2020/12/11 07:19:19;;;;;;;20.55;8.93;;;;;;;-4.46;66.28;102468.84;1705625;82;22051;-75
2020/12/11 07:21:54;;;;;;;23.57;10.83;;;;;;;-4.36;66.17;102468.49;1705990;82;21319;-71
2020/12/11 07:24:36;;;;;;;33.18;16.27;;;;;;;-4.26;66.00;102468.58;1675899;83;21992;-73
2020/12/11 07:27:09;;;;;;;22.42;10.23;;;;;;;-4.25;65.91;102473.28;1684568;82;21924;-73
2020/12/11 07:29:50;;;;;;;23.90;9.13;;;;;;;-4.27;65.95;102463.02;1711561;82;21799;-73
2020/12/11 07:32:26;;;;;;;25.62;10.90;;;;;;;-4.28;66.06;102465.58;1704459;81;22301;-73
2020/12/11 07:35:03;;;;;;;21.68;9.95;;;;;;;-4.27;66.22;102465.58;1702173;82;21230;-72
2020/12/11 07:37:36;;;;;;;21.05;9.50;;;;;;;-4.24;66.30;102468.58;1752901;79;22467;-71
2020/12/11 07:40:19;;;;;;;22.15;9.55;;;;;;;-4.27;66.47;102468.55;1770373;79;21354;-71
2020/12/11 07:42:55;;;;;;;20.52;9.45;;;;;;;-4.31;66.65;102454.91;1750647;79;21351;-67
2020/12/11 07:45:36;;;;;;;24.65;9.85;;;;;;;-4.35;66.90;102460.85;1752961;79;21393;-70
2020/12/11 07:48:10;;;;;;;19.60;9.78;;;;;;;-4.31;67.06;102458.73;1735836;80;21761;-71
2020/12/11 07:50:45;;;;;;;20.45;9.55;;;;;;;-4.29;67.17;102453.20;1697765;82;21184;-71
2020/12/11 07:53:18;;;;;;;;;;;;;;;-4.25;67.21;102456.20;1716071;81;21326;-71
2020/12/11 07:55:52;;;;;;;29.10;11.05;;;;;;;-4.25;67.38;102451.09;1720659;81;20259;-72
2020/12/11 07:58:25;;;;;;;17.02;7.85;;;;;;;-4.21;67.66;102448.15;1708023;81;22189;-72
2020/12/11 08:00:58;;;;;;;32.28;12.60;;;;;;;-4.04;67.78;102435.46;1757553;79;21193;-74
2020/12/11 08:03:32;;;;;;;26.85;9.88;;;;;;;-3.91;67.75;102436.80;1723376;81;21294;-69
2020/12/11 08:06:09;;;;;;;31.12;11.33;;;;;;;-3.81;67.76;102426.19;1753706;80;21908;-73
2020/12/11 08:08:42;;;;;;;25.97;10.43;;;;;;;-3.68;67.77;102425.41;1727247;80;21399;-72
2020/12/11 08:11:27;;;;;;;20.37;9.23;;;;;;;-3.56;67.62;102426.28;1748743;79;22793;-73
2020/12/11 08:14:02;;;;;;;20.77;9.23;;;;;;;-3.59;67.63;102421.17;1750055;80;22101;-72
2020/12/11 08:16:37;;;;;;;18.98;9.95;;;;;;;-3.59;67.75;102426.30;1768045;79;21292;-73
2020/12/11 08:19:11;;;;;;;21.37;9.10;;;;;;;-3.53;67.92;102421.17;1722062;81;21304;-74
2020/12/11 08:21:45;;;;;;;19.45;8.73;;;;;;;-3.45;67.87;102424.62;1706115;81;21212;-73
2020/12/11 08:24:30;;;;;;;19.85;9.20;;;;;;;-3.41;67.94;102417.80;1755187;80;21292;-71
2020/12/11 08:27:05;;;;;;;23.32;9.63;;;;;;;-3.39;68.02;102411.42;1757028;79;21278;-71
2020/12/11 08:29:39;;;;;;;18.53;9.13;;;;;;;-3.34;67.94;102411.84;1768072;79;21276;-73
2020/12/11 08:32:12;;;;;;;23.57;10.78;;;;;;;-3.32;68.03;102409.30;1763460;80;21308;-77
2020/12/11 08:34:45;;;;;;;19.98;9.80;;;;;;;-3.27;68.18;102421.70;1731626;79;21913;-73
2020/12/11 08:37:18;;;;;;;21.23;9.73;;;;;;;-3.31;68.15;102414.83;1763198;79;21208;-72
2020/12/11 08:39:51;;;;;;;24.05;10.35;;;;;;;-3.36;68.43;102406.28;1735396;80;21856;-72
2020/12/11 08:42:29;;;;;;;20.00;10.80;;;;;;;-3.41;68.66;102399.45;1739687;80;21306;-72
2020/12/11 08:50:27;;;;;;;19.87;9.90;;;;;;;-3.24;69.30;102399.91;1740949;80;22150;-70
2020/12/11 08:53:07;;;;;;;21.93;9.58;;;;;;;-3.15;69.25;102400.77;1743987;80;21226;-76
2020/12/11 08:55:40;;;;;;;22.35;11.08;;;;;;;-3.08;69.32;102414.02;1746525;80;21438;-74
2020/12/11 08:58:13;;;;;;;20.73;9.93;;;;;;;-3.06;69.30;102399.95;1746997;80;21594;-71
2020/12/11 09:01:03;;;;;;;28.30;11.18;;;;;;;-2.97;69.43;102395.69;1743446;80;21208;-76
2020/12/11 09:03:22;;;;;;;29.35;13.28;;;;;;;-2.90;69.30;102386.28;1734591;80;21214;-73
2020/12/11 09:05:55;;;;;;;59.42;24.92;;;;;;;-2.88;69.29;102393.13;1741363;80;21276;-72
2020/12/11 09:08:30;;;;;;;33.70;11.83;;;;;;;-2.85;69.38;102375.61;1746564;80;21216;-77
2020/12/11 09:11:03;;;;;;;24.60;13.80;;;;;;;-2.77;69.59;102379.03;1742509;80;21125;-75
2020/12/11 09:13:36;;;;;;;20.05;9.38;;;;;;;-2.65;69.64;102373.04;1751350;80;21189;-74
2020/12/11 09:16:09;;;;;;;16.65;7.83;;;;;;;-2.53;69.57;102384.11;1747760;80;21159;-74
2020/12/11 09:18:43;;;;;;;20.12;9.53;;;;;;;-2.53;69.51;102362.31;1742153;80;21370;-76
2020/12/11 09:21:16;;;;;;;22.87;8.20;;;;;;;-2.50;69.58;102378.98;1743546;80;22398;-75
2020/12/11 09:23:49;;;;;;;16.75;7.35;;;;;;;-2.44;69.64;102371.72;1744183;80;21335;-72
2020/12/11 09:26:25;;;;;;;18.30;7.70;;;;;;;-2.35;69.47;102358.45;1740698;80;21280;-75
2020/12/11 09:31:42;;;;;;;18.12;9.18;;;;;;;-2.28;69.23;102347.73;1713565;80;21307;-76
2020/12/11 09:34:24;;;;;;;22.40;7.83;;;;;;;-2.27;69.37;102341.76;1743553;80;21153;-75
2020/12/11 09:37:03;;;;;;;22.25;8.95;;;;;;;-2.20;69.49;102337.86;1747584;80;21394;-73
2020/12/11 09:39:38;;;;;;;15.25;7.80;;;;;;;-2.05;69.42;102336.95;1765181;79;21327;-74
2020/12/11 09:42:31;;;;;;;15.93;7.35;;;;;;;-1.94;68.98;102331.78;1765623;79;21279;-74
2020/12/11 09:45:07;;;;;;;14.95;6.65;;;;;;;-1.93;68.68;102330.94;1763848;79;21298;-76
2020/12/11 09:50:14;;;;;;;21.37;9.45;;;;;;;-1.83;68.39;102315.47;1762002;79;21181;-74
2020/12/11 09:53:18;;;;;;;15.72;8.55;;;;;;;-1.73;68.07;102308.56;1760908;79;21308;-76
2020/12/11 09:55:52;;;;;;;13.83;6.60;;;;;;;-1.58;67.71;102317.05;1763862;79;21199;-73
2020/12/11 09:58:29;;;;;;;18.27;8.60;;;;;;;-1.48;67.01;102308.39;1769111;79;21308;-78
2020/12/11 10:01:07;;;;;;;35.80;13.30;;;;;;;-1.38;66.72;102302.33;1767407;79;21162;-78
2020/12/11 10:03:41;;;;;;;49.85;19.90;;;;;;;-1.25;66.22;102319.80;1771521;79;21306;-78
2020/12/11 10:06:20;;;;;;;38.73;14.25;;;;;;;-1.18;65.59;102306.47;1743248;80;21192;-78
2020/12/11 10:08:54;;;;;;;33.90;13.25;;;;;;;-1.15;65.41;102302.59;1769139;79;21314;-76
2020/12/11 10:11:28;;;;;;;23.12;11.22;;;;;;;-1.20;65.19;102309.48;1771834;79;21312;-77
2020/12/11 10:14:39;;;;;;;18.83;8.87;;;;;;;-1.34;65.20;102299.33;1765063;79;21372;-75
2020/12/11 10:16:42;;;;;;;19.98;7.00;;;;;;;-1.41;65.30;102297.21;1758030;79;21792;-74
2020/12/11 10:19:15;;;;;;;;;;;;;;;-1.44;65.12;102293.41;1763858;79;21323;-76
2020/12/11 10:21:50;;;;;;;18.27;7.50;;;;;;;-1.54;64.83;102306.30;1756602;81;20286;-77
2020/12/11 10:24:24;;;;;;;14.07;6.97;;;;;;;-1.70;64.77;102299.56;1766227;79;21267;-78
2020/12/11 10:26:59;;;;;;;18.25;7.97;;;;;;;-1.77;65.11;102300.05;1765681;79;21299;-73
2020/12/11 10:29:34;;;;;;;19.25;8.53;;;;;;;-1.78;65.28;102302.17;1755457;80;21233;-73
2020/12/11 10:32:08;;;;;;;19.23;9.23;;;;;;;-1.77;65.26;102298.77;1759474;80;21312;-72
2020/12/11 10:34:41;;;;;;;21.12;9.08;;;;;;;-1.73;64.76;102296.59;1759908;79;22469;-77
2020/12/11 10:37:18;;;;;;;26.30;9.60;;;;;;;-1.72;64.30;102306.44;1764719;79;21272;-73
2020/12/11 10:39:48;;;;;;;20.80;9.93;;;;;;;-1.77;64.19;102300.05;1729998;80;21200;-76
2020/12/11 10:42:21;;;;;;;24.10;8.97;;;;;;;-1.80;64.04;102291.06;1759202;79;21309;-78
2020/12/11 10:44:55;;;;;;;18.37;8.40;;;;;;;-1.82;63.95;102290.66;1756051;80;21305;-77
2020/12/11 10:47:30;;;;;;;28.62;11.80;;;;;;;-1.88;63.74;102293.23;1754395;80;22211;-77
2020/12/11 10:50:03;;;;;;;18.45;9.35;;;;;;;-2.00;63.86;102285.17;1752723;80;21967;-75
2020/12/11 10:52:37;;;;;;;17.23;7.70;;;;;;;-2.02;63.84;102288.61;1756573;79;21338;-77
2020/12/11 10:55:10;;;;;;;;;;;;;;;-2.02;63.65;102286.05;1719063;81;21355;-73
2020/12/11 10:57:43;;;;;;;24.60;8.63;;;;;;;-2.05;63.66;102287.77;1732934;81;20292;-74
2020/12/11 11:00:16;;;;;;;12.65;6.08;;;;;;;-2.06;63.67;102292.50;1728667;81;21414;-71
2020/12/11 11:02:49;;;;;;;19.00;8.90;;;;;;;-2.09;63.61;102288.66;1720124;82;21250;-76
2020/12/11 11:05:22;;;;;;;24.17;7.33;;;;;;;-2.10;63.75;102283.51;1767459;79;21290;-69
2020/12/11 11:07:57;;;;;;;18.02;7.33;;;;;;;-2.02;63.84;102284.76;1764740;79;21664;-73
2020/12/11 11:10:38;;;;;;;18.87;8.23;;;;;;;-1.96;63.64;102279.19;1753072;79;21205;-79
2020/12/11 11:13:18;;;;;;;18.15;9.10;;;;;;;-1.94;63.56;102272.33;1757075;79;21300;-75
2020/12/11 11:15:52;;;;;;;28.57;9.75;;;;;;;-1.89;63.49;102274.86;1737359;79;21282;-78
2020/12/11 11:18:30;;;;;;;11.83;6.40;;;;;;;-1.82;63.50;102270.97;1753167;80;21262;-76
2020/12/11 11:24:12;;;;;;;12.23;6.22;;;;;;;-1.67;62.94;102256.73;1759454;79;21826;-82
2020/12/11 11:26:39;;;;;;;15.63;7.00;;;;;;;-1.66;62.81;102253.31;1752538;80;21154;-74
2020/12/11 11:29:07;;;;;;;15.48;6.15;;;;;;;-1.59;62.75;102258.83;1767291;79;21258;-73
2020/12/11 11:31:49;;;;;;;13.60;5.87;;;;;;;-1.56;62.56;102256.67;1759780;80;21859;-77
2020/12/11 11:34:25;;;;;;;26.23;10.15;;;;;;;-1.53;62.42;102246.38;1738799;80;22273;-72
2020/12/11 11:36:59;;;;;;;11.80;6.60;;;;;;;-1.55;62.31;102246.80;1761029;79;21199;-72
2020/12/11 11:39:34;;;;;;;14.78;6.72;;;;;;;-1.51;62.24;102248.50;1764242;79;21838;-71
2020/12/11 11:42:07;;;;;;;14.38;6.15;;;;;;;-1.48;61.97;102244.64;1757108;79;21938;-76
2020/12/11 11:45:03;;;;;;;19.67;6.78;;;;;;;-1.48;61.75;102236.92;1716151;81;21472;-73
2020/12/11 11:47:39;;;;;;;20.35;7.37;;;;;;;-1.50;61.65;102236.06;1756938;79;21886;-78
2020/12/11 11:50:21;;;;;;;15.20;7.20;;;;;;;-1.53;61.71;102236.11;1761845;80;21289;-79
2020/12/11 11:52:59;;;;;;;17.15;7.47;;;;;;;-1.53;61.78;102230.52;1749087;79;21306;-80
2020/12/11 11:55:24;;;;;;;15.30;7.65;;;;;;;-1.48;61.73;102240.78;1767087;79;21319;-72
2020/12/11 11:57:59;;;;;;;14.23;6.42;;;;;;;-1.43;61.62;102239.86;1771905;79;21374;-76
2020/12/11 12:00:32;;;;;;;16.77;6.65;;;;;;;-1.44;61.50;102234.32;1764105;79;21335;-75
2020/12/11 12:03:05;;;;;;;16.07;7.63;;;;;;;-1.43;61.49;102241.56;1757470;80;21346;-75
2020/12/11 12:05:42;;;;;;;11.83;5.65;;;;;;;-1.49;61.51;102230.94;1763720;79;21278;-76